sensor_id;sensor_type;location;lat;lon;timestamp;pressure;altitude;pressure_sealevel;temperature;humidity
45078;BME280;60508;42.622;25.416;2023-11-19T00:00:38;96273.44;;;3.27;81.98
45078;BME280;60508;42.622;25.416;2023-11-19T00:03:05;96274.06;;;3.29;81.73
45078;BME280;60508;42.622;25.416;2023-11-19T00:05:32;96274.03;;;3.36;81.84
45078;BME280;60508;42.622;25.416;2023-11-19T00:07:58;96268.09;;;3.34;81.43
45078;BME280;60508;42.622;25.416;2023-11-19T00:10:25;96284.22;;;3.39;80.29
45078;BME280;60508;42.622;25.416;2023-11-19T00:12:51;96272.34;;;3.42;80.15
45078;BME280;60508;42.622;25.416;2023-11-19T00:15:27;96281.75;;;3.44;81.59
45078;BME280;60508;42.622;25.416;2023-11-19T00:17:54;96285.22;;;3.45;80.61
45078;BME280;60508;42.622;25.416;2023-11-19T00:20:21;96284.00;;;3.47;79.90
45078;BME280;60508;42.622;25.416;2023-11-19T00:23:01;96285.41;;;3.43;80.40
45078;BME280;60508;42.622;25.416;2023-11-19T00:25:28;96295.84;;;3.45;81.12
45078;BME280;60508;42.622;25.416;2023-11-19T00:27:55;96309.72;;;3.47;80.97
45078;BME280;60508;42.622;25.416;2023-11-19T00:30:25;96292.34;;;3.51;82.20
45078;BME280;60508;42.622;25.416;2023-11-19T00:32:53;96302.41;;;3.42;81.54
45078;BME280;60508;42.622;25.416;2023-11-19T00:35:28;96292.59;;;3.43;81.68
45078;BME280;60508;42.622;25.416;2023-11-19T00:37:54;96296.84;;;3.44;82.52
45078;BME280;60508;42.622;25.416;2023-11-19T00:40:21;96294.00;;;3.52;81.08
45078;BME280;60508;42.622;25.416;2023-11-19T00:42:49;96290.69;;;3.50;79.67
45078;BME280;60508;42.622;25.416;2023-11-19T00:45:26;96296.78;;;3.64;79.83
45078;BME280;60508;42.622;25.416;2023-11-19T00:47:53;96296.19;;;3.55;81.22
45078;BME280;60508;42.622;25.416;2023-11-19T00:50:19;96300.69;;;3.55;79.97
45078;BME280;60508;42.622;25.416;2023-11-19T00:52:56;96300.50;;;3.56;79.78
45078;BME280;60508;42.622;25.416;2023-11-19T00:55:23;96293.97;;;3.59;80.20
45078;BME280;60508;42.622;25.416;2023-11-19T00:57:50;96302.50;;;3.68;79.62
45078;BME280;60508;42.622;25.416;2023-11-19T01:00:16;96293.75;;;3.60;79.49
45078;BME280;60508;42.622;25.416;2023-11-19T01:02:46;96253.72;;;3.48;79.59
45078;BME280;60508;42.622;25.416;2023-11-19T01:05:24;96295.75;;;3.72;79.67
45078;BME280;60508;42.622;25.416;2023-11-19T01:07:52;96286.34;;;3.69;79.94
45078;BME280;60508;42.622;25.416;2023-11-19T01:10:20;96294.91;;;3.71;79.49
45078;BME280;60508;42.622;25.416;2023-11-19T01:12:56;96281.41;;;3.73;78.62
45078;BME280;60508;42.622;25.416;2023-11-19T01:15:23;96293.25;;;3.77;79.14
45078;BME280;60508;42.622;25.416;2023-11-19T01:17:50;96304.69;;;3.77;80.28
45078;BME280;60508;42.622;25.416;2023-11-19T01:20:16;96298.59;;;3.70;79.66
45078;BME280;60508;42.622;25.416;2023-11-19T01:22:43;96300.44;;;3.70;79.83
45078;BME280;60508;42.622;25.416;2023-11-19T01:25:10;96305.75;;;3.70;78.90
45078;BME280;60508;42.622;25.416;2023-11-19T01:27:36;96308.59;;;3.75;77.58
45078;BME280;60508;42.622;25.416;2023-11-19T01:30:13;96306.09;;;3.87;75.85
45078;BME280;60508;42.622;25.416;2023-11-19T01:32:40;96309.53;;;3.87;75.96
45078;BME280;60508;42.622;25.416;2023-11-19T01:35:07;96319.94;;;3.95;74.91
45078;BME280;60508;42.622;25.416;2023-11-19T01:37:44;96318.91;;;3.96;73.97
45078;BME280;60508;42.622;25.416;2023-11-19T01:40:11;96326.25;;;4.01;73.82
45078;BME280;60508;42.622;25.416;2023-11-19T01:42:38;96320.69;;;4.09;72.35
45078;BME280;60508;42.622;25.416;2023-11-19T01:45:05;96308.41;;;4.08;72.91
45078;BME280;60508;42.622;25.416;2023-11-19T01:47:46;96320.69;;;4.09;73.58
45078;BME280;60508;42.622;25.416;2023-11-19T01:50:13;96327.19;;;4.13;72.12
45078;BME280;60508;42.622;25.416;2023-11-19T01:52:40;96311.22;;;4.13;70.62
45078;BME280;60508;42.622;25.416;2023-11-19T01:55:08;96310.78;;;4.23;70.56
45078;BME280;60508;42.622;25.416;2023-11-19T01:57:36;96319.38;;;4.25;70.72
45078;BME280;60508;42.622;25.416;2023-11-19T02:00:05;96325.16;;;4.15;70.94
45078;BME280;60508;42.622;25.416;2023-11-19T02:02:40;96307.72;;;4.19;70.65
45078;BME280;60508;42.622;25.416;2023-11-19T02:05:07;96306.59;;;4.09;71.19
45078;BME280;60508;42.622;25.416;2023-11-19T02:07:33;96308.38;;;4.15;70.77
45078;BME280;60508;42.622;25.416;2023-11-19T02:10:10;96308.81;;;4.12;71.46
45078;BME280;60508;42.622;25.416;2023-11-19T02:12:40;96313.03;;;4.19;71.25
45078;BME280;60508;42.622;25.416;2023-11-19T02:15:11;96311.66;;;4.17;69.90
45078;BME280;60508;42.622;25.416;2023-11-19T02:17:38;96284.06;;;4.11;68.78
45078;BME280;60508;42.622;25.416;2023-11-19T02:20:14;96303.63;;;4.24;69.22
45078;BME280;60508;42.622;25.416;2023-11-19T02:22:43;96290.91;;;4.26;69.66
45078;BME280;60508;42.622;25.416;2023-11-19T02:25:17;96302.56;;;4.25;69.80
45078;BME280;60508;42.622;25.416;2023-11-19T02:28:03;96313.00;;;4.26;69.77
45078;BME280;60508;42.622;25.416;2023-11-19T02:30:31;96267.09;;;4.12;69.11
45078;BME280;60508;42.622;25.416;2023-11-19T02:32:59;96302.34;;;4.26;68.85
45078;BME280;60508;42.622;25.416;2023-11-19T02:35:32;96305.06;;;4.19;68.72
45078;BME280;60508;42.622;25.416;2023-11-19T02:38:09;96306.91;;;4.19;69.42
45078;BME280;60508;42.622;25.416;2023-11-19T02:40:35;96293.50;;;4.07;68.33
45078;BME280;60508;42.622;25.416;2023-11-19T02:43:02;96310.81;;;4.16;68.85
45078;BME280;60508;42.622;25.416;2023-11-19T02:45:30;96295.06;;;4.15;67.99
45078;BME280;60508;42.622;25.416;2023-11-19T02:47:57;96298.56;;;4.15;67.27
45078;BME280;60508;42.622;25.416;2023-11-19T02:50:34;96304.78;;;4.02;68.19
45078;BME280;60508;42.622;25.416;2023-11-19T02:53:00;96341.06;;;4.22;68.34
45078;BME280;60508;42.622;25.416;2023-11-19T02:55:27;96341.28;;;4.20;68.61
45078;BME280;60508;42.622;25.416;2023-11-19T02:57:58;96350.06;;;4.21;68.30
45078;BME280;60508;42.622;25.416;2023-11-19T03:00:26;96364.41;;;4.20;68.33
45078;BME280;60508;42.622;25.416;2023-11-19T03:03:02;96352.75;;;4.14;68.46
45078;BME280;60508;42.622;25.416;2023-11-19T03:05:51;96352.34;;;4.17;68.39
45078;BME280;60508;42.622;25.416;2023-11-19T03:08:18;96364.56;;;4.25;67.90
45078;BME280;60508;42.622;25.416;2023-11-19T03:10:44;96358.03;;;4.21;68.46
45078;BME280;60508;42.622;25.416;2023-11-19T03:13:21;96351.75;;;4.15;68.03
45078;BME280;60508;42.622;25.416;2023-11-19T03:15:48;96363.00;;;4.11;68.99
45078;BME280;60508;42.622;25.416;2023-11-19T03:18:14;96362.00;;;4.12;69.61
45078;BME280;60508;42.622;25.416;2023-11-19T03:20:41;96371.19;;;4.09;69.21
45078;BME280;60508;42.622;25.416;2023-11-19T03:23:18;96368.50;;;4.16;69.97
45078;BME280;60508;42.622;25.416;2023-11-19T03:25:44;96368.91;;;4.13;69.47
45078;BME280;60508;42.622;25.416;2023-11-19T03:28:11;96371.97;;;4.16;69.10
45078;BME280;60508;42.622;25.416;2023-11-19T03:30:47;96371.59;;;4.13;69.34
45078;BME280;60508;42.622;25.416;2023-11-19T03:33:14;96372.81;;;4.17;68.91
45078;BME280;60508;42.622;25.416;2023-11-19T03:35:41;96357.69;;;4.11;69.44
45078;BME280;60508;42.622;25.416;2023-11-19T03:38:18;96367.31;;;4.12;68.71
45078;BME280;60508;42.622;25.416;2023-11-19T03:40:44;96366.84;;;4.15;68.47
45078;BME280;60508;42.622;25.416;2023-11-19T03:43:11;96376.06;;;4.19;67.70
45078;BME280;60508;42.622;25.416;2023-11-19T03:45:40;96364.28;;;4.01;68.49
45078;BME280;60508;42.622;25.416;2023-11-19T03:48:08;96389.19;;;4.14;68.47
45078;BME280;60508;42.622;25.416;2023-11-19T03:50:45;96373.66;;;4.11;68.72
45078;BME280;60508;42.622;25.416;2023-11-19T03:53:12;96320.06;;;3.69;68.77
45078;BME280;60508;42.622;25.416;2023-11-19T03:55:39;96382.81;;;4.15;68.32
45078;BME280;60508;42.622;25.416;2023-11-19T03:58:15;96383.44;;;4.17;67.93
45078;BME280;60508;42.622;25.416;2023-11-19T04:00:42;96381.03;;;4.09;68.68
45078;BME280;60508;42.622;25.416;2023-11-19T04:03:08;96394.66;;;4.19;68.41
45078;BME280;60508;42.622;25.416;2023-11-19T04:05:45;96408.41;;;4.09;69.04
45078;BME280;60508;42.622;25.416;2023-11-19T04:08:12;96396.09;;;4.15;67.71
45078;BME280;60508;42.622;25.416;2023-11-19T04:10:38;96411.22;;;4.21;67.49
45078;BME280;60508;42.622;25.416;2023-11-19T04:13:04;96403.44;;;4.19;67.36
45078;BME280;60508;42.622;25.416;2023-11-19T04:15:41;96404.66;;;4.24;67.37
45078;BME280;60508;42.622;25.416;2023-11-19T04:18:07;96403.44;;;4.19;67.57
45078;BME280;60508;42.622;25.416;2023-11-19T04:20:35;96429.00;;;4.27;67.38
45078;BME280;60508;42.622;25.416;2023-11-19T04:23:13;96432.44;;;4.28;67.42
45078;BME280;60508;42.622;25.416;2023-11-19T04:25:39;96442.88;;;4.29;67.14
45078;BME280;60508;42.622;25.416;2023-11-19T04:28:06;96443.50;;;4.25;67.58
45078;BME280;60508;42.622;25.416;2023-11-19T04:30:35;96435.53;;;4.25;68.02
45078;BME280;60508;42.622;25.416;2023-11-19T04:33:01;96443.50;;;4.25;67.79
45078;BME280;60508;42.622;25.416;2023-11-19T04:35:28;96437.81;;;4.21;67.52
45078;BME280;60508;42.622;25.416;2023-11-19T04:38:04;96459.91;;;4.22;67.74
45078;BME280;60508;42.622;25.416;2023-11-19T04:40:31;96447.22;;;4.24;67.79
45078;BME280;60508;42.622;25.416;2023-11-19T04:42:59;96460.72;;;4.22;68.18
45078;BME280;60508;42.622;25.416;2023-11-19T04:45:36;96469.34;;;4.17;67.93
45078;BME280;60508;42.622;25.416;2023-11-19T04:48:03;96468.09;;;4.13;68.52
45078;BME280;60508;42.622;25.416;2023-11-19T04:50:29;96472.59;;;4.19;68.67
45078;BME280;60508;42.622;25.416;2023-11-19T04:53:07;96484.47;;;4.17;68.02
45078;BME280;60508;42.622;25.416;2023-11-19T04:55:33;96475.06;;;4.14;68.54
45078;BME280;60508;42.622;25.416;2023-11-19T04:58:00;96473.84;;;4.17;67.30
45078;BME280;60508;42.622;25.416;2023-11-19T05:00:36;96481.41;;;4.13;68.14
45078;BME280;60508;42.622;25.416;2023-11-19T05:03:04;96474.69;;;4.04;68.44
45078;BME280;60508;42.622;25.416;2023-11-19T05:05:31;96490.69;;;3.97;67.86
45078;BME280;60508;42.622;25.416;2023-11-19T05:08:00;96504.13;;;4.09;67.96
45078;BME280;60508;42.622;25.416;2023-11-19T05:10:27;96447.78;;;3.74;67.47
45078;BME280;60508;42.622;25.416;2023-11-19T05:12:54;96497.78;;;4.10;68.42
45078;BME280;60508;42.622;25.416;2023-11-19T05:15:22;96513.13;;;4.01;68.36
45078;BME280;60508;42.622;25.416;2023-11-19T05:17:59;96522.75;;;4.09;68.65
45078;BME280;60508;42.622;25.416;2023-11-19T05:20:25;96519.25;;;4.02;67.36
45078;BME280;60508;42.622;25.416;2023-11-19T05:22:52;96512.75;;;3.98;67.55
45078;BME280;60508;42.622;25.416;2023-11-19T05:25:19;96532.56;;;3.95;67.21
45078;BME280;60508;42.622;25.416;2023-11-19T05:27:49;96513.56;;;3.92;68.31
45078;BME280;60508;42.622;25.416;2023-11-19T05:30:15;96495.22;;;3.70;67.48
45078;BME280;60508;42.622;25.416;2023-11-19T05:36:06;96545.28;;;3.87;68.04
45078;BME280;60508;42.622;25.416;2023-11-19T05:38:44;96526.69;;;3.80;68.82
45078;BME280;60508;42.622;25.416;2023-11-19T05:41:11;96513.81;;;3.70;68.59
45078;BME280;60508;42.622;25.416;2023-11-19T05:43:37;96540.75;;;3.94;67.62
45078;BME280;60508;42.622;25.416;2023-11-19T05:46:07;96542.81;;;3.92;67.97
45078;BME280;60508;42.622;25.416;2023-11-19T05:48:43;96530.13;;;3.87;68.08
45078;BME280;60508;42.622;25.416;2023-11-19T05:51:12;96546.28;;;3.92;68.29
45078;BME280;60508;42.622;25.416;2023-11-19T05:53:38;96555.09;;;3.93;68.48
45078;BME280;60508;42.622;25.416;2023-11-19T05:56:05;96546.91;;;3.94;68.39
45078;BME280;60508;42.622;25.416;2023-11-19T05:58:44;96544.25;;;3.94;68.18
45078;BME280;60508;42.622;25.416;2023-11-19T06:01:11;96543.41;;;3.94;68.18
45078;BME280;60508;42.622;25.416;2023-11-19T06:03:38;96555.88;;;4.00;67.92
45078;BME280;60508;42.622;25.416;2023-11-19T06:06:05;96552.00;;;4.02;68.21
45078;BME280;60508;42.622;25.416;2023-11-19T06:08:32;96548.09;;;4.05;67.71
45078;BME280;60508;42.622;25.416;2023-11-19T06:11:11;96554.47;;;4.04;67.40
45078;BME280;60508;42.622;25.416;2023-11-19T06:13:44;96532.56;;;3.95;67.64
45078;BME280;60508;42.622;25.416;2023-11-19T06:16:11;96544.81;;;4.10;67.06
45078;BME280;60508;42.622;25.416;2023-11-19T06:18:38;96556.47;;;4.15;66.41
45078;BME280;60508;42.622;25.416;2023-11-19T06:21:05;96554.41;;;4.17;66.66
45078;BME280;60508;42.622;25.416;2023-11-19T06:23:32;96532.97;;;4.06;65.78
45078;BME280;60508;42.622;25.416;2023-11-19T06:25:58;96560.97;;;4.22;65.96
45078;BME280;60508;42.622;25.416;2023-11-19T06:28:25;96567.31;;;4.14;66.73
45078;BME280;60508;42.622;25.416;2023-11-19T06:30:55;96555.44;;;4.10;67.44
45078;BME280;60508;42.622;25.416;2023-11-19T06:33:22;96571.38;;;4.16;67.62
45078;BME280;60508;42.622;25.416;2023-11-19T06:35:48;96567.13;;;4.15;67.54
45078;BME280;60508;42.622;25.416;2023-11-19T06:38:15;96562.22;;;4.12;67.75
45078;BME280;60508;42.622;25.416;2023-11-19T06:40:42;96557.88;;;4.18;67.32
45078;BME280;60508;42.622;25.416;2023-11-19T06:43:17;96546.66;;;4.16;67.72
45078;BME280;60508;42.622;25.416;2023-11-19T06:45:44;96558.72;;;4.18;67.63
45078;BME280;60508;42.622;25.416;2023-11-19T06:48:11;96552.00;;;4.09;67.03
45078;BME280;60508;42.622;25.416;2023-11-19T06:50:37;96569.56;;;4.17;67.53
45078;BME280;60508;42.622;25.416;2023-11-19T06:53:14;96575.91;;;4.16;67.77
45078;BME280;60508;42.622;25.416;2023-11-19T06:55:41;96583.44;;;4.26;66.72
45078;BME280;60508;42.622;25.416;2023-11-19T06:58:08;96562.78;;;4.21;66.35
45078;BME280;60508;42.622;25.416;2023-11-19T07:00:44;96578.94;;;4.26;65.59
45078;BME280;60508;42.622;25.416;2023-11-19T07:03:13;96576.06;;;4.28;65.61
45078;BME280;60508;42.622;25.416;2023-11-19T07:05:40;96571.78;;;4.33;65.59
45078;BME280;60508;42.622;25.416;2023-11-19T07:08:07;96542.97;;;4.24;64.66
45078;BME280;60508;42.622;25.416;2023-11-19T07:10:44;96562.75;;;4.41;64.98
45078;BME280;60508;42.622;25.416;2023-11-19T07:13:13;96572.97;;;4.51;64.26
45078;BME280;60508;42.622;25.416;2023-11-19T07:15:40;96563.47;;;4.62;63.42
45078;BME280;60508;42.622;25.416;2023-11-19T07:18:07;96581.13;;;4.56;62.90
45078;BME280;60508;42.622;25.416;2023-11-19T07:20:37;96581.13;;;4.56;63.64
45078;BME280;60508;42.622;25.416;2023-11-19T07:23:04;96584.78;;;4.68;63.67
45078;BME280;60508;42.622;25.416;2023-11-19T07:25:40;96591.22;;;4.86;63.29
45078;BME280;60508;42.622;25.416;2023-11-19T07:28:07;96597.34;;;4.93;63.50
45078;BME280;60508;42.622;25.416;2023-11-19T07:30:34;96608.28;;;5.17;62.19
45078;BME280;60508;42.622;25.416;2023-11-19T07:33:14;96603.63;;;5.44;61.64
45078;BME280;60508;42.622;25.416;2023-11-19T07:35:42;96613.47;;;5.75;60.34
45078;BME280;60508;42.622;25.416;2023-11-19T07:38:09;96603.06;;;5.67;60.04
45078;BME280;60508;42.622;25.416;2023-11-19T07:40:46;96612.91;;;5.66;60.61
45078;BME280;60508;42.622;25.416;2023-11-19T07:43:14;96620.84;;;6.05;59.75
45078;BME280;60508;42.622;25.416;2023-11-19T07:45:40;96624.38;;;6.24;58.87
45078;BME280;60508;42.622;25.416;2023-11-19T07:48:09;96639.44;;;6.37;58.24
45078;BME280;60508;42.622;25.416;2023-11-19T07:50:37;96629.34;;;6.39;57.68
45078;BME280;60508;42.622;25.416;2023-11-19T07:53:03;96628.41;;;6.52;56.77
45078;BME280;60508;42.622;25.416;2023-11-19T07:55:38;96635.69;;;6.63;56.85
45078;BME280;60508;42.622;25.416;2023-11-19T07:58:04;96650.88;;;6.63;55.95
45078;BME280;60508;42.622;25.416;2023-11-19T08:00:30;96641.75;;;6.89;56.75
45078;BME280;60508;42.622;25.416;2023-11-19T08:02:57;96635.91;;;6.99;55.84
45078;BME280;60508;42.622;25.416;2023-11-19T08:05:23;96634.34;;;7.09;55.45
45078;BME280;60508;42.622;25.416;2023-11-19T08:07:51;96652.16;;;7.46;54.16
45078;BME280;60508;42.622;25.416;2023-11-19T08:10:19;96648.00;;;7.50;53.24
45078;BME280;60508;42.622;25.416;2023-11-19T08:12:46;96651.34;;;7.88;53.72
45078;BME280;60508;42.622;25.416;2023-11-19T08:15:12;96654.69;;;8.37;50.88
45078;BME280;60508;42.622;25.416;2023-11-19T08:17:46;96660.19;;;8.54;49.49
45078;BME280;60508;42.622;25.416;2023-11-19T08:20:13;96672.03;;;8.82;50.47
45078;BME280;60508;42.622;25.416;2023-11-19T08:22:40;96652.34;;;8.88;48.86
45078;BME280;60508;42.622;25.416;2023-11-19T08:25:16;96665.75;;;9.40;48.14
45078;BME280;60508;42.622;25.416;2023-11-19T08:27:43;96654.59;;;9.60;47.49
45078;BME280;60508;42.622;25.416;2023-11-19T08:30:10;96655.91;;;9.58;46.56
45078;BME280;60508;42.622;25.416;2023-11-19T08:32:37;96647.84;;;9.58;46.57
45078;BME280;60508;42.622;25.416;2023-11-19T08:35:04;96657.69;;;8.88;46.93
45078;BME280;60508;42.622;25.416;2023-11-19T08:37:31;96666.09;;;8.91;48.41
45078;BME280;60508;42.622;25.416;2023-11-19T08:39:58;96659.78;;;9.09;48.41
45078;BME280;60508;42.622;25.416;2023-11-19T08:42:25;96648.47;;;9.07;47.61
45078;BME280;60508;42.622;25.416;2023-11-19T08:45:02;96664.75;;;9.18;47.27
45078;BME280;60508;42.622;25.416;2023-11-19T08:47:29;96663.00;;;9.23;45.96
45078;BME280;60508;42.622;25.416;2023-11-19T08:49:55;96647.34;;;9.32;45.69
45078;BME280;60508;42.622;25.416;2023-11-19T08:52:22;96647.53;;;9.42;45.95
45078;BME280;60508;42.622;25.416;2023-11-19T08:54:48;96654.94;;;9.35;45.96
45078;BME280;60508;42.622;25.416;2023-11-19T08:57:23;96662.56;;;9.14;46.57
45078;BME280;60508;42.622;25.416;2023-11-19T08:59:50;96659.94;;;9.31;46.77
45078;BME280;60508;42.622;25.416;2023-11-19T09:02:16;96672.94;;;8.99;46.66
45078;BME280;60508;42.622;25.416;2023-11-19T09:04:52;96673.00;;;8.75;47.13
45078;BME280;60508;42.622;25.416;2023-11-19T09:07:19;96670.97;;;9.06;46.93
45078;BME280;60508;42.622;25.416;2023-11-19T09:09:46;96671.13;;;9.40;46.91
45078;BME280;60508;42.622;25.416;2023-11-19T09:12:12;96669.72;;;9.38;46.09
45078;BME280;60508;42.622;25.416;2023-11-19T09:14:40;96677.47;;;9.51;45.83
45078;BME280;60508;42.622;25.416;2023-11-19T09:17:19;96676.38;;;9.64;46.01
45078;BME280;60508;42.622;25.416;2023-11-19T09:19:45;96678.06;;;9.82;45.35
45078;BME280;60508;42.622;25.416;2023-11-19T09:22:12;96676.44;;;9.98;44.95
45078;BME280;60508;42.622;25.416;2023-11-19T09:24:48;96665.41;;;10.28;44.30
45078;BME280;60508;42.622;25.416;2023-11-19T09:27:15;96677.59;;;10.02;44.01
45078;BME280;60508;42.622;25.416;2023-11-19T09:29:42;96674.59;;;9.98;44.47
45078;BME280;60508;42.622;25.416;2023-11-19T09:32:10;96669.19;;;9.53;45.96
45078;BME280;60508;42.622;25.416;2023-11-19T09:34:37;96661.13;;;9.53;46.02
45078;BME280;60508;42.622;25.416;2023-11-19T09:37:03;96658.75;;;9.68;45.10
45078;BME280;60508;42.622;25.416;2023-11-19T09:39:31;96671.50;;;10.07;44.32
45078;BME280;60508;42.622;25.416;2023-11-19T09:42:07;96647.19;;;10.13;43.75
45078;BME280;60508;42.622;25.416;2023-11-19T09:44:34;96642.44;;;10.20;43.49
45078;BME280;60508;42.622;25.416;2023-11-19T09:47:03;96638.06;;;10.31;43.52
45078;BME280;60508;42.622;25.416;2023-11-19T09:49:41;96637.44;;;10.24;43.70
45078;BME280;60508;42.622;25.416;2023-11-19T09:52:08;96602.34;;;10.14;43.32
45078;BME280;60508;42.622;25.416;2023-11-19T09:54:35;96635.06;;;10.28;43.63
45078;BME280;60508;42.622;25.416;2023-11-19T09:57:02;96636.13;;;10.44;42.64
45078;BME280;60508;42.622;25.416;2023-11-19T09:59:31;96623.81;;;10.48;42.98
45078;BME280;60508;42.622;25.416;2023-11-19T10:02:18;96636.03;;;10.21;43.48
45078;BME280;60508;42.622;25.416;2023-11-19T10:04:55;96634.69;;;10.36;42.84
45078;BME280;60508;42.622;25.416;2023-11-19T10:07:22;96628.22;;;10.20;42.34
45078;BME280;60508;42.622;25.416;2023-11-19T10:09:48;96631.59;;;9.81;43.59
45078;BME280;60508;42.622;25.416;2023-11-19T10:12:18;96631.84;;;9.63;42.60
45078;BME280;60508;42.622;25.416;2023-11-19T10:14:45;96612.91;;;9.69;43.52
45078;BME280;60508;42.622;25.416;2023-11-19T10:17:16;96611.97;;;10.10;44.06
45078;BME280;60508;42.622;25.416;2023-11-19T10:20:00;96609.91;;;10.17;42.69
45078;BME280;60508;42.622;25.416;2023-11-19T10:22:36;96615.28;;;10.00;42.49
45078;BME280;60508;42.622;25.416;2023-11-19T10:25:26;96619.06;;;9.70;43.07
45078;BME280;60508;42.622;25.416;2023-11-19T10:27:54;96625.06;;;10.06;43.25
45078;BME280;60508;42.622;25.416;2023-11-19T10:30:25;96629.13;;;10.43;41.60
45078;BME280;60508;42.622;25.416;2023-11-19T10:33:10;96634.16;;;10.56;41.00
45078;BME280;60508;42.622;25.416;2023-11-19T10:35:55;96640.44;;;10.45;40.54
45078;BME280;60508;42.622;25.416;2023-11-19T10:38:30;96617.75;;;10.35;41.38
45078;BME280;60508;42.622;25.416;2023-11-19T10:40:57;96616.44;;;10.21;41.28
45078;BME280;60508;42.622;25.416;2023-11-19T10:43:25;96601.28;;;10.49;41.17
45078;BME280;60508;42.622;25.416;2023-11-19T10:46:18;96599.34;;;10.27;41.33
45078;BME280;60508;42.622;25.416;2023-11-19T10:49:04;96611.00;;;10.33;41.89
45078;BME280;60508;42.622;25.416;2023-11-19T10:51:31;96593.97;;;10.10;41.37
45078;BME280;60508;42.622;25.416;2023-11-19T10:54:07;96592.91;;;9.94;42.31
45078;BME280;60508;42.622;25.416;2023-11-19T10:56:42;96601.69;;;9.73;42.28
45078;BME280;60508;42.622;25.416;2023-11-19T10:59:12;96573.25;;;9.43;42.69
45078;BME280;60508;42.622;25.416;2023-11-19T11:01:44;96588.41;;;9.49;42.45
45078;BME280;60508;42.622;25.416;2023-11-19T11:04:14;96587.38;;;10.01;42.23
45078;BME280;60508;42.622;25.416;2023-11-19T11:06:47;96579.13;;;10.58;40.73
45078;BME280;60508;42.622;25.416;2023-11-19T11:09:14;96583.66;;;10.36;41.43
45078;BME280;60508;42.622;25.416;2023-11-19T11:11:52;96598.66;;;10.71;41.19
45078;BME280;60508;42.622;25.416;2023-11-19T11:14:22;96598.47;;;10.38;41.36
45078;BME280;60508;42.622;25.416;2023-11-19T11:16:49;96589.66;;;10.26;40.37
45078;BME280;60508;42.622;25.416;2023-11-19T11:19:17;96592.50;;;10.36;41.12
45078;BME280;60508;42.622;25.416;2023-11-19T11:21:50;96595.34;;;10.30;41.10
45078;BME280;60508;42.622;25.416;2023-11-19T11:25:05;96597.50;;;10.67;40.30
45078;BME280;60508;42.622;25.416;2023-11-19T11:27:55;96563.19;;;10.52;40.46
45078;BME280;60508;42.622;25.416;2023-11-19T11:33:21;96578.81;;;10.77;40.80
45078;BME280;60508;42.622;25.416;2023-11-19T11:36:15;96571.19;;;10.69;40.17
45078;BME280;60508;42.622;25.416;2023-11-19T11:38:48;96542.25;;;10.54;40.35
45078;BME280;60508;42.622;25.416;2023-11-19T11:43:49;96541.00;;;10.39;40.40
45078;BME280;60508;42.622;25.416;2023-11-19T11:49:07;96492.03;;;10.15;40.01
45078;BME280;60508;42.622;25.416;2023-11-19T11:57:07;96530.31;;;10.67;39.99
45078;BME280;60508;42.622;25.416;2023-11-19T12:02:19;96509.63;;;10.89;40.42
45078;BME280;60508;42.622;25.416;2023-11-19T12:04:51;96502.84;;;11.09;38.82
45078;BME280;60508;42.622;25.416;2023-11-19T12:07:33;96515.81;;;10.90;39.83
45078;BME280;60508;42.622;25.416;2023-11-19T12:10:07;96486.41;;;11.05;39.03
45078;BME280;60508;42.622;25.416;2023-11-19T12:12:35;96489.69;;;11.12;38.93
45078;BME280;60508;42.622;25.416;2023-11-19T12:15:08;96493.59;;;11.00;38.60
45078;BME280;60508;42.622;25.416;2023-11-19T12:17:52;96478.16;;;11.12;38.57
45078;BME280;60508;42.622;25.416;2023-11-19T12:20:22;96451.50;;;11.10;38.45
45078;BME280;60508;42.622;25.416;2023-11-19T12:23:06;96448.53;;;11.39;38.42
45078;BME280;60508;42.622;25.416;2023-11-19T12:25:36;96473.50;;;11.35;38.12
45078;BME280;60508;42.622;25.416;2023-11-19T12:28:15;96475.34;;;11.29;38.13
45078;BME280;60508;42.622;25.416;2023-11-19T12:30:44;96483.16;;;11.63;37.35
45078;BME280;60508;42.622;25.416;2023-11-19T12:33:12;96491.78;;;11.65;37.13
45078;BME280;60508;42.622;25.416;2023-11-19T12:35:43;96492.78;;;11.91;37.56
45078;BME280;60508;42.622;25.416;2023-11-19T12:43:31;96495.03;;;12.04;37.31
45078;BME280;60508;42.622;25.416;2023-11-19T12:45:57;96489.19;;;12.13;36.43
45078;BME280;60508;42.622;25.416;2023-11-19T12:48:24;96485.91;;;12.05;36.61
45078;BME280;60508;42.622;25.416;2023-11-19T12:51:01;96469.78;;;11.73;36.82
45078;BME280;60508;42.622;25.416;2023-11-19T12:53:28;96482.94;;;11.69;37.59
45078;BME280;60508;42.622;25.416;2023-11-19T12:55:56;96479.03;;;11.50;37.52
45078;BME280;60508;42.622;25.416;2023-11-19T12:58:37;96482.81;;;11.54;37.73
45078;BME280;60508;42.622;25.416;2023-11-19T13:01:19;96478.25;;;10.95;38.10
45078;BME280;60508;42.622;25.416;2023-11-19T13:03:47;96489.72;;;10.85;39.18
45078;BME280;60508;42.622;25.416;2023-11-19T13:06:15;96480.06;;;10.89;39.45
45078;BME280;60508;42.622;25.416;2023-11-19T13:08:44;96489.75;;;10.90;38.74
45078;BME280;60508;42.622;25.416;2023-11-19T13:11:12;96484.94;;;10.92;38.83
45078;BME280;60508;42.622;25.416;2023-11-19T13:13:58;96461.22;;;11.11;38.24
45078;BME280;60508;42.622;25.416;2023-11-19T13:16:26;96469.16;;;11.01;39.00
45078;BME280;60508;42.622;25.416;2023-11-19T13:18:53;96476.31;;;10.90;38.76
45078;BME280;60508;42.622;25.416;2023-11-19T13:21:23;96466.03;;;10.60;39.09
45078;BME280;60508;42.622;25.416;2023-11-19T13:23:50;96471.50;;;10.26;40.12
45078;BME280;60508;42.622;25.416;2023-11-19T13:26:17;96478.53;;;10.10;40.85
45078;BME280;60508;42.622;25.416;2023-11-19T13:28:43;96469.25;;;9.62;41.21
45078;BME280;60508;42.622;25.416;2023-11-19T13:31:19;96460.50;;;9.49;41.94
45078;BME280;60508;42.622;25.416;2023-11-19T13:33:46;96474.16;;;9.48;41.77
45078;BME280;60508;42.622;25.416;2023-11-19T13:36:13;96473.41;;;9.36;41.99
45078;BME280;60508;42.622;25.416;2023-11-19T13:38:51;96458.84;;;9.31;42.62